Promitheas — SYIJ — position and weather

sailwx.info

Track history (hours):
 
Tides and Currents Weather Stations Pressure Air Temp Water Temp Dewpoint Dewpoint Depression Visibility Wind Speed Wind Dir Waves Ship Positions

Promitheas

Last reported at 2017-Mar-25 00:26 UTC. Time now 2017-Mar-25 04:04 UTC.
Position N 60°02' E 026°34'.

Length 249 m; draft 14.5 m.

Type: Ship (hazmat cat A). MMSI: 240547000.

Date/timePositionNaut miles runAvg speedWind from/ knotsBaromVisibWave heightAir tempDewpointWater temp
2017-Mar-25 00:26N 60°02' E 026°34'1213.7
2017-Mar-24 23:33N 59°60' E 026°58'1313.3
2017-Mar-24 22:33N 60°05' E 027°22'1313.4
2017-Mar-24 21:33N 60°12' E 027°45'1010.3
2017-Mar-24 20:33N 60°10' E 028°05'10 9.6
2017-Mar-24 19:33N 60°06' E 028°23'9 8.8
2017-Mar-24 18:33N 59°60' E 028°36'10 9.7
2017-Mar-24 17:33N 59°51' E 028°27'5 5.1
2017-Mar-24 16:33N 59°46' E 028°25'0 0.0
2017-Mar-24 15:32N 59°46' E 028°25'0 0.0
2017-Mar-24 14:32N 59°46' E 028°25'0 0.0
2017-Mar-24 13:32N 59°46' E 028°25'0 0.0
2017-Mar-24 12:32N 59°46' E 028°25'0 0.0
2017-Mar-24 11:32N 59°46' E 028°25'0 0.0
2017-Mar-24 10:32N 59°46' E 028°25'0 0.0
2017-Mar-24 09:32N 59°46' E 028°25'0 0.0
2017-Mar-24 08:23N 59°46' E 028°25'0 0.0
2017-Mar-24 07:26N 59°46' E 028°25'0 0.0
2017-Mar-24 06:26N 59°46' E 028°25'0 0.0
2017-Mar-24 05:26N 59°46' E 028°25'0 0.0
2017-Mar-24 04:29N 59°46' E 028°25'0 0.0
2017-Mar-24 03:29N 59°46' E 028°25'0 0.0
2017-Mar-24 02:29N 59°46' E 028°25'0 0.0
2017-Mar-24 01:32N 59°46' E 028°25'0 0.0
2017-Mar-24 00:32N 59°46' E 028°25'0 0.0
2017-Mar-23 23:32N 59°46' E 028°25'0 0.0
2017-Mar-23 22:32N 59°46' E 028°25'0 0.0
2017-Mar-23 21:32N 59°46' E 028°25'0 0.1
2017-Mar-23 20:32N 59°46' E 028°25'0 0.1
2017-Mar-23 19:32N 59°46' E 028°25'0 0.0
2017-Mar-23 18:23N 59°46' E 028°25'0 0.0
2017-Mar-23 17:26N 59°46' E 028°25'0 0.0
2017-Mar-23 16:26N 59°46' E 028°25'0 0.0
2017-Mar-23 15:26N 59°46' E 028°25'0 0.0
2017-Mar-23 14:29N 59°46' E 028°25'0 0.0
2017-Mar-23 13:29N 59°46' E 028°25'0 0.0
2017-Mar-23 12:29N 59°46' E 028°25'0 0.0
2017-Mar-23 11:32N 59°46' E 028°25'0 0.0
2017-Mar-23 10:32N 59°46' E 028°25'0 0.0
2017-Mar-23 09:32N 59°46' E 028°25'0 0.0
2017-Mar-23 08:20N 59°46' E 028°25'0 0.0
2017-Mar-23 07:32N 59°46' E 028°25'0 0.0
2017-Mar-23 06:32N 59°46' E 028°25'0 0.0
2017-Mar-23 05:32N 59°46' E 028°25'0 0.0
2017-Mar-23 04:23N 59°46' E 028°25'0 0.0
2017-Mar-23 03:23N 59°46' E 028°25'0 0.0
2017-Mar-23 02:26N 59°46' E 028°25'0 0.0
2017-Mar-23 01:26N 59°46' E 028°25'0 0.0
2017-Mar-23 00:29N 59°46' E 028°25'0 0.0
2017-Mar-22 23:29N 59°46' E 028°25'0 0.0
2017-Mar-22 22:29N 59°46' E 028°25'0 0.0
2017-Mar-22 21:32N 59°46' E 028°25'0 0.0
2017-Mar-22 20:32N 59°46' E 028°25'0 0.0
2017-Mar-22 19:32N 59°46' E 028°25'0 0.0
2017-Mar-22 18:32N 59°46' E 028°25'0 0.0
2017-Mar-22 17:32N 59°46' E 028°25'0 0.0
2017-Mar-22 16:32N 59°46' E 028°25'0 0.0
2017-Mar-22 15:32N 59°46' E 028°25'0 0.0
2017-Mar-22 14:32N 59°46' E 028°25'0 0.0
2017-Mar-22 13:23N 59°46' E 028°25'0 0.0
2017-Mar-22 12:26N 59°46' E 028°25'0 0.0
2017-Mar-22 11:26N 59°46' E 028°25'0 0.0
2017-Mar-22 10:26N 59°46' E 028°25'0 0.0
2017-Mar-22 09:29N 59°46' E 028°25'0 0.0
2017-Mar-22 08:29N 59°46' E 028°25'0 0.0
2017-Mar-22 07:29N 59°46' E 028°25'0 0.0
2017-Mar-22 06:32N 59°46' E 028°25'0 0.0
2017-Mar-22 05:32N 59°46' E 028°25'0 0.1
2017-Mar-22 04:32N 59°46' E 028°25'0 0.0
2017-Mar-22 03:32N 59°46' E 028°25'0 0.0
2017-Mar-22 02:20N 59°46' E 028°25'0 0.0
2017-Mar-22 01:32N 59°46' E 028°25'0 0.0
2017-Mar-22 00:32N 59°46' E 028°25'0 0.0
2017-Mar-21 23:23N 59°46' E 028°25'0 0.0
2017-Mar-21 22:26N 59°46' E 028°25'0 0.0
2017-Mar-21 21:26N 59°46' E 028°25'0 0.2
2017-Mar-21 20:33N 59°46' E 028°25'3 2.9
2017-Mar-21 19:34N 59°43' E 028°25'1 1.2
2017-Mar-21 18:33N 59°42' E 028°26'0 0.0
2017-Mar-21 17:33N 59°42' E 028°26'0 0.0
2017-Mar-21 16:33N 59°42' E 028°26'0 0.0
2017-Mar-21 15:33N 59°42' E 028°26'0 0.0
2017-Mar-21 14:33N 59°42' E 028°26'0 0.0
2017-Mar-21 13:33N 59°42' E 028°26'0 0.0
2017-Mar-21 12:33N 59°42' E 028°26'0 0.0
2017-Mar-21 11:34N 59°42' E 028°26'0 0.0
2017-Mar-21 10:34N 59°42' E 028°26'0 0.0
2017-Mar-21 09:34N 59°42' E 028°26'0 0.0
2017-Mar-21 08:34N 59°42' E 028°26'0 0.0
2017-Mar-21 07:34N 59°42' E 028°26'0 0.0
2017-Mar-21 06:34N 59°42' E 028°26'0 0.0
2017-Mar-21 05:34N 59°42' E 028°26'0 0.0
2017-Mar-21 04:33N 59°42' E 028°26'0 0.0
2017-Mar-21 03:33N 59°42' E 028°26'0 0.0
2017-Mar-21 02:33N 59°42' E 028°26'0 0.0
2017-Mar-21 01:33N 59°42' E 028°26'0 0.0
2017-Mar-21 00:33N 59°42' E 028°26'0 0.0
2017-Mar-20 23:33N 59°42' E 028°26'0 0.0
2017-Mar-20 22:33N 59°42' E 028°26'0 0.0
2017-Mar-20 21:34N 59°42' E 028°26'0 0.0
2017-Mar-20 20:34N 59°42' E 028°26'0 0.0
2017-Mar-20 19:33N 59°42' E 028°26'0 0.0
2017-Mar-20 18:34N 59°42' E 028°26'0 0.0
2017-Mar-20 17:33N 59°42' E 028°26'1 1.4
2017-Mar-20 16:34N 59°43' E 028°23'9 9.2
2017-Mar-20 15:33N 59°52' E 028°28'9 8.7
2017-Mar-20 14:33N 59°60' E 028°35'8 7.7
2017-Mar-20 13:34N 60°04' E 028°22'1110.7
2017-Mar-20 12:33N 60°09' E 028°03'1111.3
2017-Mar-20 11:33N 60°09' E 027°40'1312.8
2017-Mar-20 10:33N 60°02' E 027°18'1512.4
2017-Mar-20 09:23N 59°59' E 026°50'1113.1
2017-Mar-20 08:33N 59°58' E 026°28'1313.5
2017-Mar-20 07:33N 59°55' E 026°03'38912.2
2017-Mar-18 23:33N 55°47' E 016°39'1313.2
2017-Mar-18 22:33N 55°44' E 016°17'1313.4
2017-Mar-18 21:33N 55°41' E 015°53'1313.2
2017-Mar-18 20:34N 55°38' E 015°31'1413.5
2017-Mar-18 19:33N 55°31' E 015°10'1413.6
2017-Mar-18 18:33N 55°26' E 014°47'1312.6
2017-Mar-18 17:33N 55°18' E 014°31'1312.9
2017-Mar-18 16:33N 55°08' E 014°17'1212.4
2017-Mar-18 15:33N 54°59' E 014°01'3913.1
2017-Mar-18 12:33N 54°47' E 012°56'1313.1
2017-Mar-18 11:33N 54°42' E 012°35'1313.2
2017-Mar-18 10:33N 54°33' E 012°18'1311.2
2017-Mar-18 09:25N 54°25' E 012°02'1514.1
2017-Mar-18 08:20N 54°28' E 011°36'1215.1
2017-Mar-18 07:33N 54°33' E 011°17'1414.4
2017-Mar-18 06:33N 54°41' E 010°56'1312.7
2017-Mar-18 05:33N 54°53' E 010°53'1413.6
2017-Mar-18 04:32N 55°06' E 011°02'5512.9
2017-Mar-18 00:18N 56°01' E 011°04'7412.2
2017-Mar-17 18:14N 57°13' E 011°33'913.8
2017-Mar-17 17:33N 57°22' E 011°27'1312.6
2017-Mar-17 16:33N 57°29' E 011°08'11 0.9
2017-Mar-17 04:25N 57°26' E 010°49'0 0.0
2017-Mar-17 03:04N 57°26' E 010°49'0 0.1
2017-Mar-17 02:31N 57°26' E 010°49'0 0.0
2017-Mar-16 10:23N 57°26' E 010°49'0 0.6
2017-Mar-16 09:33N 57°26' E 010°48'1 0.7
2017-Mar-16 08:32N 57°27' E 010°48'4 3.8
2017-Mar-16 07:33N 57°28' E 010°55'1212.3
2017-Mar-16 06:33N 57°30' E 011°17'1211.4
2017-Mar-16 05:33N 57°21' E 011°30'1312.9
2017-Mar-16 04:33N 57°09' E 011°38'12010.8
2017-Mar-15 17:28N 55°11' E 011°03'910.2
2017-Mar-15 16:33N 55°02' E 010°60'10 9.7
2017-Mar-15 15:33N 54°54' E 010°51'10 9.6
2017-Mar-15 14:33N 54°44' E 010°47'10 9.6
2017-Mar-15 13:33N 54°37' E 010°57'1110.8
2017-Mar-15 12:33N 54°34' E 011°16'1211.6
2017-Mar-15 11:33N 54°29' E 011°34'1111.4
2017-Mar-15 10:33N 54°26' E 011°53'1110.7
2017-Mar-15 09:33N 54°27' E 012°11'10 9.9
2017-Mar-15 08:33N 54°36' E 012°17'7 6.8
2017-Mar-15 07:33N 54°40' E 012°27'4610.4
2017-Mar-15 03:08N 54°59' E 013°40'711.4
2017-Mar-15 02:32N 55°00' E 013°51'1111.3
2017-Mar-15 01:33N 55°06' E 014°08'1211.7
2017-Mar-15 00:33N 55°15' E 014°21'  
Track history (hours):
 
Tides and Currents Weather Stations Pressure Air Temp Water Temp Dewpoint Dewpoint Depression Visibility Wind Speed Wind Dir Waves Ship Positions

Promitheas

Last reported at 2017-Mar-25 00:26 UTC. Time now 2017-Mar-25 04:04 UTC.
Position N 60°02' E 026°34'.

Length 249 m; draft 14.5 m.

Type: Ship (hazmat cat A). MMSI: 240547000.

Date/timePositionNaut miles runAvg speedWind from/ knotsBaromVisibWave heightAir tempDewpointWater temp
2017-Mar-25 00:26N 60°02' E 026°34'1213.7
2017-Mar-24 23:33N 59°60' E 026°58'1313.3
2017-Mar-24 22:33N 60°05' E 027°22'1313.4
2017-Mar-24 21:33N 60°12' E 027°45'1010.3
2017-Mar-24 20:33N 60°10' E 028°05'10 9.6
2017-Mar-24 19:33N 60°06' E 028°23'9 8.8
2017-Mar-24 18:33N 59°60' E 028°36'10 9.7
2017-Mar-24 17:33N 59°51' E 028°27'5 5.1
2017-Mar-24 16:33N 59°46' E 028°25'0 0.0
2017-Mar-24 15:32N 59°46' E 028°25'0 0.0
2017-Mar-24 14:32N 59°46' E 028°25'0 0.0
2017-Mar-24 13:32N 59°46' E 028°25'0 0.0
2017-Mar-24 12:32N 59°46' E 028°25'0 0.0
2017-Mar-24 11:32N 59°46' E 028°25'0 0.0
2017-Mar-24 10:32N 59°46' E 028°25'0 0.0
2017-Mar-24 09:32N 59°46' E 028°25'0 0.0
2017-Mar-24 08:23N 59°46' E 028°25'0 0.0
2017-Mar-24 07:26N 59°46' E 028°25'0 0.0
2017-Mar-24 06:26N 59°46' E 028°25'0 0.0
2017-Mar-24 05:26N 59°46' E 028°25'0 0.0
2017-Mar-24 04:29N 59°46' E 028°25'0 0.0
2017-Mar-24 03:29N 59°46' E 028°25'0 0.0
2017-Mar-24 02:29N 59°46' E 028°25'0 0.0
2017-Mar-24 01:32N 59°46' E 028°25'0 0.0
2017-Mar-24 00:32N 59°46' E 028°25'0 0.0
2017-Mar-23 23:32N 59°46' E 028°25'0 0.0
2017-Mar-23 22:32N 59°46' E 028°25'0 0.0
2017-Mar-23 21:32N 59°46' E 028°25'0 0.1
2017-Mar-23 20:32N 59°46' E 028°25'0 0.1
2017-Mar-23 19:32N 59°46' E 028°25'0 0.0
2017-Mar-23 18:23N 59°46' E 028°25'0 0.0
2017-Mar-23 17:26N 59°46' E 028°25'0 0.0
2017-Mar-23 16:26N 59°46' E 028°25'0 0.0
2017-Mar-23 15:26N 59°46' E 028°25'0 0.0
2017-Mar-23 14:29N 59°46' E 028°25'0 0.0
2017-Mar-23 13:29N 59°46' E 028°25'0 0.0
2017-Mar-23 12:29N 59°46' E 028°25'0 0.0
2017-Mar-23 11:32N 59°46' E 028°25'0 0.0
2017-Mar-23 10:32N 59°46' E 028°25'0 0.0
2017-Mar-23 09:32N 59°46' E 028°25'0 0.0
2017-Mar-23 08:20N 59°46' E 028°25'0 0.0
2017-Mar-23 07:32N 59°46' E 028°25'0 0.0
2017-Mar-23 06:32N 59°46' E 028°25'0 0.0
2017-Mar-23 05:32N 59°46' E 028°25'0 0.0
2017-Mar-23 04:23N 59°46' E 028°25'0 0.0
2017-Mar-23 03:23N 59°46' E 028°25'0 0.0
2017-Mar-23 02:26N 59°46' E 028°25'0 0.0
2017-Mar-23 01:26N 59°46' E 028°25'0 0.0
2017-Mar-23 00:29N 59°46' E 028°25'0 0.0
2017-Mar-22 23:29N 59°46' E 028°25'0 0.0
2017-Mar-22 22:29N 59°46' E 028°25'0 0.0
2017-Mar-22 21:32N 59°46' E 028°25'0 0.0
2017-Mar-22 20:32N 59°46' E 028°25'0 0.0
2017-Mar-22 19:32N 59°46' E 028°25'0 0.0
2017-Mar-22 18:32N 59°46' E 028°25'0 0.0
2017-Mar-22 17:32N 59°46' E 028°25'0 0.0
2017-Mar-22 16:32N 59°46' E 028°25'0 0.0
2017-Mar-22 15:32N 59°46' E 028°25'0 0.0
2017-Mar-22 14:32N 59°46' E 028°25'0 0.0
2017-Mar-22 13:23N 59°46' E 028°25'0 0.0
2017-Mar-22 12:26N 59°46' E 028°25'0 0.0
2017-Mar-22 11:26N 59°46' E 028°25'0 0.0
2017-Mar-22 10:26N 59°46' E 028°25'0 0.0
2017-Mar-22 09:29N 59°46' E 028°25'0 0.0
2017-Mar-22 08:29N 59°46' E 028°25'0 0.0
2017-Mar-22 07:29N 59°46' E 028°25'0 0.0
2017-Mar-22 06:32N 59°46' E 028°25'0 0.0
2017-Mar-22 05:32N 59°46' E 028°25'0 0.1
2017-Mar-22 04:32N 59°46' E 028°25'0 0.0
2017-Mar-22 03:32N 59°46' E 028°25'0 0.0
2017-Mar-22 02:20N 59°46' E 028°25'0 0.0
2017-Mar-22 01:32N 59°46' E 028°25'0 0.0
2017-Mar-22 00:32N 59°46' E 028°25'0 0.0
2017-Mar-21 23:23N 59°46' E 028°25'0 0.0
2017-Mar-21 22:26N 59°46' E 028°25'0 0.0
2017-Mar-21 21:26N 59°46' E 028°25'0 0.2
2017-Mar-21 20:33N 59°46' E 028°25'3 2.9
2017-Mar-21 19:34N 59°43' E 028°25'1 1.2
2017-Mar-21 18:33N 59°42' E 028°26'0 0.0
2017-Mar-21 17:33N 59°42' E 028°26'0 0.0
2017-Mar-21 16:33N 59°42' E 028°26'0 0.0
2017-Mar-21 15:33N 59°42' E 028°26'0 0.0
2017-Mar-21 14:33N 59°42' E 028°26'0 0.0
2017-Mar-21 13:33N 59°42' E 028°26'0 0.0
2017-Mar-21 12:33N 59°42' E 028°26'0 0.0
2017-Mar-21 11:34N 59°42' E 028°26'0 0.0
2017-Mar-21 10:34N 59°42' E 028°26'0 0.0
2017-Mar-21 09:34N 59°42' E 028°26'0 0.0
2017-Mar-21 08:34N 59°42' E 028°26'0 0.0
2017-Mar-21 07:34N 59°42' E 028°26'0 0.0
2017-Mar-21 06:34N 59°42' E 028°26'0 0.0
2017-Mar-21 05:34N 59°42' E 028°26'0 0.0
2017-Mar-21 04:33N 59°42' E 028°26'0 0.0
2017-Mar-21 03:33N 59°42' E 028°26'0 0.0
2017-Mar-21 02:33N 59°42' E 028°26'0 0.0
2017-Mar-21 01:33N 59°42' E 028°26'0 0.0
2017-Mar-21 00:33N 59°42' E 028°26'0 0.0
2017-Mar-20 23:33N 59°42' E 028°26'0 0.0
2017-Mar-20 22:33N 59°42' E 028°26'0 0.0
2017-Mar-20 21:34N 59°42' E 028°26'0 0.0
2017-Mar-20 20:34N 59°42' E 028°26'0 0.0
2017-Mar-20 19:33N 59°42' E 028°26'0 0.0
2017-Mar-20 18:34N 59°42' E 028°26'0 0.0
2017-Mar-20 17:33N 59°42' E 028°26'1 1.4
2017-Mar-20 16:34N 59°43' E 028°23'9 9.2
2017-Mar-20 15:33N 59°52' E 028°28'9 8.7
2017-Mar-20 14:33N 59°60' E 028°35'8 7.7
2017-Mar-20 13:34N 60°04' E 028°22'1110.7
2017-Mar-20 12:33N 60°09' E 028°03'1111.3
2017-Mar-20 11:33N 60°09' E 027°40'1312.8
2017-Mar-20 10:33N 60°02' E 027°18'1512.4
2017-Mar-20 09:23N 59°59' E 026°50'1113.1
2017-Mar-20 08:33N 59°58' E 026°28'1313.5
2017-Mar-20 07:33N 59°55' E 026°03'38912.2
2017-Mar-18 23:33N 55°47' E 016°39'1313.2
2017-Mar-18 22:33N 55°44' E 016°17'1313.4
2017-Mar-18 21:33N 55°41' E 015°53'1313.2
2017-Mar-18 20:34N 55°38' E 015°31'1413.5
2017-Mar-18 19:33N 55°31' E 015°10'1413.6
2017-Mar-18 18:33N 55°26' E 014°47'1312.6
2017-Mar-18 17:33N 55°18' E 014°31'1312.9
2017-Mar-18 16:33N 55°08' E 014°17'1212.4
2017-Mar-18 15:33N 54°59' E 014°01'3913.1
2017-Mar-18 12:33N 54°47' E 012°56'1313.1
2017-Mar-18 11:33N 54°42' E 012°35'1313.2
2017-Mar-18 10:33N 54°33' E 012°18'1311.2
2017-Mar-18 09:25N 54°25' E 012°02'1514.1
2017-Mar-18 08:20N 54°28' E 011°36'1215.1
2017-Mar-18 07:33N 54°33' E 011°17'1414.4
2017-Mar-18 06:33N 54°41' E 010°56'1312.7
2017-Mar-18 05:33N 54°53' E 010°53'1413.6
2017-Mar-18 04:32N 55°06' E 011°02'5512.9
2017-Mar-18 00:18N 56°01' E 011°04'7412.2
2017-Mar-17 18:14N 57°13' E 011°33'913.8
2017-Mar-17 17:33N 57°22' E 011°27'1312.6
2017-Mar-17 16:33N 57°29' E 011°08'11 0.9
2017-Mar-17 04:25N 57°26' E 010°49'0 0.0
2017-Mar-17 03:04N 57°26' E 010°49'0 0.1
2017-Mar-17 02:31N 57°26' E 010°49'0 0.0
2017-Mar-16 10:23N 57°26' E 010°49'0 0.6
2017-Mar-16 09:33N 57°26' E 010°48'1 0.7
2017-Mar-16 08:32N 57°27' E 010°48'4 3.8
2017-Mar-16 07:33N 57°28' E 010°55'1212.3
2017-Mar-16 06:33N 57°30' E 011°17'1211.4
2017-Mar-16 05:33N 57°21' E 011°30'1312.9
2017-Mar-16 04:33N 57°09' E 011°38'12010.8
2017-Mar-15 17:28N 55°11' E 011°03'910.2
2017-Mar-15 16:33N 55°02' E 010°60'10 9.7
2017-Mar-15 15:33N 54°54' E 010°51'10 9.6
2017-Mar-15 14:33N 54°44' E 010°47'10 9.6
2017-Mar-15 13:33N 54°37' E 010°57'1110.8
2017-Mar-15 12:33N 54°34' E 011°16'1211.6
2017-Mar-15 11:33N 54°29' E 011°34'1111.4
2017-Mar-15 10:33N 54°26' E 011°53'1110.7
2017-Mar-15 09:33N 54°27' E 012°11'10 9.9
2017-Mar-15 08:33N 54°36' E 012°17'7 6.8
2017-Mar-15 07:33N 54°40' E 012°27'4610.4
2017-Mar-15 03:08N 54°59' E 013°40'711.4
2017-Mar-15 02:32N 55°00' E 013°51'1111.3
2017-Mar-15 01:33N 55°06' E 014°08'1211.7
2017-Mar-15 00:33N 55°15' E 014°21'  

Dump ship's entire track history